Atlanta, Georgia
Traffic Map
Current Weather Conditions
Atlanta, Georgia
Overcast
Overcast
80°
Feels Like: 84°
Wind Chill: 80° Ceiling: 20000
Heat Index: 84° Visibility: 10mi
Dew Point: 73° Wind: 5mph
Humidity: 79% Direction: 330° (NNW)
Pressure: 29.96in Gusts: 0mph
Raw Report DataKATL 300752Z 33004KT 10SM FEW150 BKN200 OVC300 27/23 A2996 RMK AO2 SLP133 T02670228
Traffic Incident Summary
Active as of:
Severity:
Category:
InformationThere was an issue retrieving the traffic information for this location. Please try a different location or try again shortly.
Advertisements
Track Severe Weather on mobile